createdAt,value
2019-05-16T00:00:54.049Z,9.21
2019-05-16T00:03:27.989Z,9.21
2019-05-16T00:06:01.019Z,9.23
2019-05-16T00:08:33.963Z,9.25
2019-05-16T00:11:08.555Z,9.25
2019-05-16T00:13:41.378Z,9.25
2019-05-16T00:16:15.272Z,9.29
2019-05-16T00:18:48.625Z,9.32
2019-05-16T00:21:21.565Z,9.33
2019-05-16T00:23:54.416Z,9.35
2019-05-16T00:26:28.150Z,9.40
2019-05-16T00:29:01.134Z,9.41
2019-05-16T00:31:34.295Z,9.40
2019-05-16T00:34:09.410Z,9.41
2019-05-16T00:36:42.757Z,9.44
2019-05-16T00:39:15.694Z,9.47
2019-05-16T00:41:48.561Z,9.48
2019-05-16T00:44:21.460Z,9.50
2019-05-16T00:46:54.302Z,9.53
2019-05-16T00:49:28.052Z,9.55
2019-05-16T00:52:01.002Z,9.59
2019-05-16T00:54:34.003Z,9.58
2019-05-16T00:57:08.540Z,9.60
2019-05-16T00:59:41.813Z,9.64
2019-05-16T01:02:14.621Z,9.63
2019-05-16T01:04:48.712Z,9.65
2019-05-16T01:07:21.756Z,9.65
2019-05-16T01:09:54.566Z,9.68
2019-05-16T01:12:28.422Z,9.69
2019-05-16T01:15:02.226Z,9.69
2019-05-16T01:17:35.840Z,9.72
2019-05-16T01:20:09.611Z,9.74
2019-05-16T01:22:42.377Z,9.75
2019-05-16T01:25:19.270Z,9.77
2019-05-16T01:27:51.328Z,9.78
2019-05-16T01:30:24.251Z,9.80
2019-05-16T01:32:58.255Z,9.81
2019-05-16T01:35:31.656Z,9.83
2019-05-16T01:38:04.457Z,9.86
2019-05-16T01:40:38.697Z,9.85
2019-05-16T01:43:11.790Z,9.85
2019-05-16T01:45:44.833Z,9.88
2019-05-16T01:48:19.328Z,9.90
2019-05-16T01:50:53.516Z,9.91
2019-05-16T01:53:27.828Z,9.93
2019-05-16T01:56:01.033Z,9.96
2019-05-16T01:58:33.838Z,9.98
2019-05-16T02:01:13.078Z,10.00
2019-05-16T02:03:41.225Z,10.02
2019-05-16T02:06:14.100Z,10.04
2019-05-16T02:08:48.680Z,10.06
2019-05-16T02:11:21.479Z,10.08
2019-05-16T02:13:54.281Z,10.11
2019-05-16T02:16:27.851Z,10.15
2019-05-16T02:19:00.906Z,10.17
2019-05-16T02:21:33.804Z,10.19
2019-05-16T02:24:08.689Z,10.21
2019-05-16T02:26:41.216Z,10.21
2019-05-16T02:29:14.004Z,10.23
2019-05-16T02:31:51.096Z,10.25
2019-05-16T02:34:22.614Z,10.26
2019-05-16T02:37:14.638Z,10.27
2019-05-16T02:39:30.661Z,10.31
2019-05-16T02:42:03.722Z,10.32
2019-05-16T02:44:36.500Z,10.32
2019-05-16T02:47:10.822Z,10.29
2019-05-16T02:49:43.947Z,10.28
2019-05-16T02:52:16.841Z,10.27
2019-05-16T02:54:51.823Z,10.31
2019-05-16T02:57:24.480Z,10.31
2019-05-16T03:00:01.825Z,10.31
2019-05-16T03:02:33.433Z,10.30
2019-05-16T03:05:06.299Z,10.30
2019-05-16T03:07:45.962Z,10.30
2019-05-16T03:10:15.352Z,10.31
2019-05-16T03:12:51.448Z,10.33
2019-05-16T03:15:24.382Z,10.34
2019-05-16T03:18:04.236Z,10.34
2019-05-16T03:20:36.668Z,10.34
2019-05-16T03:23:11.328Z,10.33
2019-05-16T03:25:44.003Z,10.30
2019-05-16T03:28:16.832Z,10.31
2019-05-16T03:30:54.638Z,10.30
2019-05-16T03:33:33.002Z,10.29
2019-05-16T03:36:04.011Z,10.27
2019-05-16T03:38:34.519Z,10.30
2019-05-16T03:41:07.440Z,10.30
2019-05-16T03:43:41.246Z,10.29
2019-05-16T03:46:14.365Z,10.31
2019-05-16T03:48:47.249Z,10.30
2019-05-16T03:51:21.577Z,10.34
2019-05-16T03:53:54.764Z,10.33
2019-05-16T03:56:30.565Z,10.36
2019-05-16T03:59:04.977Z,10.35
2019-05-16T04:01:41.031Z,10.35
2019-05-16T04:04:14.097Z,10.36
2019-05-16T04:06:46.946Z,10.39
2019-05-16T04:09:21.124Z,10.33
2019-05-16T04:11:54.164Z,10.36
2019-05-16T04:14:27.020Z,10.39
2019-05-16T04:17:01.883Z,10.40
2019-05-16T04:19:34.759Z,10.39
2019-05-16T04:22:14.608Z,10.38
2019-05-16T04:24:47.432Z,10.38
2019-05-16T04:27:21.419Z,10.39
2019-05-16T04:29:54.611Z,10.42
2019-05-16T04:32:27.563Z,10.45
2019-05-16T04:35:02.489Z,10.46
2019-05-16T04:37:35.286Z,10.48
2019-05-16T04:40:11.838Z,10.50
2019-05-16T04:42:43.044Z,10.50
2019-05-16T04:45:16.307Z,10.54
2019-05-16T04:47:51.220Z,10.55
2019-05-16T04:50:27.555Z,10.63
2019-05-16T04:53:01.376Z,10.69
2019-05-16T04:55:34.418Z,10.69
2019-05-16T04:58:10.427Z,10.73
2019-05-16T05:00:42.146Z,10.76
2019-05-16T05:03:16.117Z,10.77
2019-05-16T05:05:51.427Z,10.79
2019-05-16T05:08:23.718Z,10.80
2019-05-16T05:10:56.532Z,10.81
2019-05-16T05:13:30.645Z,10.82
2019-05-16T05:16:03.764Z,10.83
2019-05-16T05:18:36.618Z,10.84
2019-05-16T05:21:11.725Z,10.84
2019-05-16T05:23:44.303Z,10.84
2019-05-16T05:26:17.192Z,10.82
2019-05-16T05:28:50.737Z,10.85
2019-05-16T05:31:25.431Z,10.85
2019-05-16T05:34:01.259Z,10.85
2019-05-16T05:36:33.037Z,10.86
2019-05-16T05:39:11.965Z,10.89
2019-05-16T05:41:41.121Z,10.88
2019-05-16T05:44:14.008Z,10.90
2019-05-16T05:46:46.924Z,10.95
2019-05-16T05:49:20.452Z,10.96
2019-05-16T05:51:53.476Z,10.96
2019-05-16T05:54:26.318Z,10.96
2019-05-16T05:57:00.712Z,10.98
2019-05-16T05:59:33.668Z,11.00
2019-05-16T06:02:06.572Z,11.04
2019-05-16T06:04:39.613Z,11.04
2019-05-16T06:07:12.542Z,11.10
2019-05-16T06:09:53.493Z,11.10
2019-05-16T06:12:21.365Z,11.12
2019-05-16T06:14:54.422Z,11.12
2019-05-16T06:17:27.282Z,11.15
2019-05-16T06:20:00.412Z,11.19
2019-05-16T06:22:33.369Z,11.25
2019-05-16T06:25:06.762Z,11.29
2019-05-16T06:27:40.735Z,11.36
2019-05-16T06:30:14.139Z,11.35
2019-05-16T06:32:47.028Z,11.41
2019-05-16T06:35:21.240Z,11.46
2019-05-16T06:37:54.876Z,11.50
2019-05-16T06:40:29.532Z,11.54
2019-05-16T06:43:02.174Z,11.59
2019-05-16T06:45:35.056Z,11.63
2019-05-16T06:48:10.009Z,11.67
2019-05-16T06:50:42.789Z,11.73
2019-05-16T06:53:16.013Z,11.81
2019-05-16T06:55:49.751Z,11.85
2019-05-16T06:58:22.802Z,11.92
2019-05-16T07:00:55.686Z,11.97
2019-05-16T07:03:30.926Z,12.02
2019-05-16T07:06:03.635Z,12.05
2019-05-16T07:08:36.474Z,12.06
2019-05-16T07:11:10.542Z,12.10
2019-05-16T07:13:43.557Z,12.15
2019-05-16T07:16:16.493Z,12.20
2019-05-16T07:18:50.566Z,12.23
2019-05-16T07:21:23.796Z,12.29
2019-05-16T07:23:57.012Z,12.34
2019-05-16T07:26:30.967Z,12.33
2019-05-16T07:29:04.425Z,12.37
2019-05-16T07:31:37.237Z,12.36
2019-05-16T07:34:11.577Z,12.39
2019-05-16T07:36:44.568Z,12.42
2019-05-16T07:39:19.814Z,12.46
2019-05-16T07:41:51.978Z,12.48
2019-05-16T07:44:24.812Z,12.54
2019-05-16T07:47:00.797Z,12.55
2019-05-16T07:49:32.458Z,12.57
2019-05-16T07:52:05.260Z,12.60
2019-05-16T07:54:40.368Z,12.67
2019-05-16T07:57:19.512Z,12.73
2019-05-16T07:59:50.551Z,12.78
2019-05-16T08:02:22.982Z,12.85
2019-05-16T08:04:55.841Z,12.93
2019-05-16T08:07:33.127Z,12.95
2019-05-16T08:10:03.374Z,12.94
2019-05-16T08:12:36.320Z,12.98
2019-05-16T08:15:10.256Z,12.98
2019-05-16T08:17:44.665Z,12.97
2019-05-16T08:20:18.107Z,12.98
2019-05-16T08:22:51.190Z,13.01
2019-05-16T08:25:24.032Z,13.03
2019-05-16T08:27:56.957Z,13.03
2019-05-16T08:30:31.707Z,13.00
2019-05-16T08:33:04.304Z,13.01
2019-05-16T08:35:37.120Z,13.04
2019-05-16T08:38:13.513Z,13.02
2019-05-16T08:41:04.339Z,12.99
2019-05-16T08:45:53.676Z,12.99
2019-05-16T08:48:26.473Z,13.02
2019-05-16T08:51:02.874Z,13.02
2019-05-16T08:53:33.929Z,12.97
2019-05-16T08:56:06.927Z,12.94
2019-05-16T08:58:41.021Z,12.93
2019-05-16T09:01:14.937Z,12.85
2019-05-16T09:03:51.655Z,12.82
2019-05-16T09:06:23.106Z,12.67
2019-05-16T09:08:59.630Z,12.58
2019-05-16T09:10:21.222Z,12.98
2019-05-16T09:11:40.712Z,12.55
2019-05-16T09:14:07.968Z,12.46
2019-05-16T09:16:39.956Z,12.41
2019-05-16T09:19:12.735Z,12.43
2019-05-16T09:21:47.434Z,12.37
2019-05-16T09:24:20.087Z,12.37
2019-05-16T09:26:52.906Z,12.33
2019-05-16T09:29:27.309Z,12.32
2019-05-16T09:32:11.322Z,12.28
2019-05-16T09:34:37.882Z,12.26
2019-05-16T09:37:09.670Z,12.19
2019-05-16T09:39:42.544Z,12.22
2019-05-16T09:42:17.208Z,12.16
2019-05-16T09:44:50.307Z,12.20
2019-05-16T09:47:23.206Z,12.17
2019-05-16T09:49:57.953Z,12.14
2019-05-16T09:52:30.728Z,12.12
2019-05-16T09:55:03.948Z,12.12
2019-05-16T09:57:37.565Z,12.09
2019-05-16T10:00:17.831Z,12.09
2019-05-16T10:02:51.268Z,12.11
2019-05-16T10:05:26.619Z,12.15
2019-05-16T10:08:00.165Z,12.16
2019-05-16T10:10:33.084Z,12.17
2019-05-16T10:13:06.826Z,12.14
2019-05-16T10:15:39.747Z,12.19
2019-05-16T10:18:12.807Z,12.14
2019-05-16T10:20:45.649Z,12.17
2019-05-16T10:23:18.488Z,12.20
2019-05-16T10:25:51.316Z,12.25
2019-05-16T10:28:27.081Z,12.27
2019-05-16T10:30:58.931Z,12.25
2019-05-16T10:33:31.843Z,12.30
2019-05-16T10:36:04.711Z,12.36
2019-05-16T10:38:37.646Z,12.37
2019-05-16T10:41:10.416Z,12.42
2019-05-16T10:43:43.332Z,12.51
2019-05-16T10:46:17.723Z,12.56
2019-05-16T10:48:51.300Z,12.61
2019-05-16T10:51:24.156Z,12.66
2019-05-16T10:54:09.002Z,12.70
2019-05-16T10:56:32.359Z,12.70
2019-05-16T10:59:46.754Z,12.75
2019-05-16T11:01:40.840Z,12.91
2019-05-16T11:04:26.218Z,13.07
2019-05-16T11:06:48.444Z,13.09
2019-05-16T11:09:21.314Z,13.07
2019-05-16T11:11:56.957Z,13.07
2019-05-16T11:14:31.280Z,13.08
2019-05-16T11:17:04.075Z,13.06
2019-05-16T11:19:37.261Z,13.04
2019-05-16T11:22:10.171Z,13.00
2019-05-16T11:24:43.043Z,13.08
2019-05-16T11:27:16.053Z,13.13
2019-05-16T11:29:48.895Z,13.22
2019-05-16T11:32:21.778Z,13.29
2019-05-16T11:34:54.662Z,13.32
2019-05-16T11:37:28.013Z,13.36
2019-05-16T11:40:01.041Z,13.46
2019-05-16T11:42:33.909Z,13.57
2019-05-16T11:45:09.459Z,13.69
2019-05-16T11:47:42.129Z,13.85
2019-05-16T11:50:17.640Z,13.96
2019-05-16T11:52:49.620Z,13.99
2019-05-16T11:55:22.437Z,13.99
2019-05-16T11:57:56.952Z,13.90
2019-05-16T12:00:30.682Z,13.91
2019-05-16T12:03:03.814Z,13.93
2019-05-16T12:05:37.363Z,14.04
2019-05-16T12:08:10.451Z,14.15
2019-05-16T12:10:43.307Z,14.25
2019-05-16T12:13:25.289Z,14.32
2019-05-16T12:15:50.715Z,14.31
2019-05-16T12:18:23.845Z,14.34
2019-05-16T12:20:56.729Z,14.30
2019-05-16T12:23:29.527Z,14.36
2019-05-16T12:26:03.785Z,14.45
2019-05-16T12:28:36.681Z,14.52
2019-05-16T12:31:09.514Z,14.44
2019-05-16T12:33:43.842Z,14.38
2019-05-16T12:36:18.132Z,14.34
2019-05-16T12:38:51.319Z,14.32
2019-05-16T12:41:24.212Z,14.28
2019-05-16T12:43:58.890Z,14.18
2019-05-16T12:46:31.749Z,14.16
2019-05-16T12:49:06.865Z,14.13
2019-05-16T12:51:39.029Z,14.10
2019-05-16T12:54:11.900Z,14.20
2019-05-16T12:56:44.724Z,14.31
2019-05-16T12:59:18.601Z,14.37
2019-05-16T13:01:52.134Z,14.43
2019-05-16T13:04:27.993Z,14.53
2019-05-16T13:06:59.615Z,14.58
2019-05-16T13:09:32.835Z,14.63
2019-05-16T13:12:06.933Z,14.61
2019-05-16T13:14:40.531Z,14.64
2019-05-16T13:17:13.492Z,14.72
2019-05-16T13:19:48.287Z,14.82
2019-05-16T13:22:20.883Z,14.85
2019-05-16T13:24:53.793Z,14.87
2019-05-16T13:27:26.670Z,14.85
2019-05-16T13:29:59.818Z,14.82
2019-05-16T13:32:32.856Z,14.70
2019-05-16T13:35:07.656Z,14.64
2019-05-16T13:37:40.951Z,14.62
2019-05-16T13:40:17.058Z,14.58
2019-05-16T13:42:50.160Z,14.62
2019-05-16T13:45:26.949Z,14.60
2019-05-16T13:47:58.735Z,14.59
2019-05-16T13:50:32.272Z,14.61
2019-05-16T13:53:07.818Z,14.62
2019-05-16T13:55:39.862Z,14.61
2019-05-16T13:58:13.726Z,14.59
2019-05-16T14:00:48.064Z,14.59
2019-05-16T14:03:21.632Z,14.57
2019-05-16T14:05:54.528Z,14.57
2019-05-16T14:08:27.522Z,14.61
2019-05-16T14:11:02.105Z,14.65
2019-05-16T14:13:37.597Z,14.71
2019-05-16T14:16:10.241Z,14.74
2019-05-16T14:18:43.094Z,14.84
2019-05-16T14:21:18.142Z,14.93
2019-05-16T14:23:53.454Z,14.99
2019-05-16T14:26:25.540Z,15.03
2019-05-16T14:28:58.457Z,15.08
2019-05-16T14:31:31.392Z,15.15
2019-05-16T14:34:06.296Z,15.14
2019-05-16T14:36:39.045Z,15.09
2019-05-16T14:39:11.849Z,15.06
2019-05-16T14:41:46.905Z,15.03
2019-05-16T14:44:19.384Z,14.98
2019-05-16T14:46:52.347Z,14.89
2019-05-16T14:49:28.883Z,14.82
2019-05-16T14:52:01.257Z,14.76
2019-05-16T14:54:34.246Z,14.77
2019-05-16T14:57:07.122Z,14.76
2019-05-16T14:59:39.909Z,14.80
2019-05-16T15:02:12.944Z,14.79
2019-05-16T15:04:49.261Z,14.82
2019-05-16T15:07:20.435Z,14.79
2019-05-16T15:09:53.277Z,14.74
2019-05-16T15:12:26.804Z,14.77
2019-05-16T15:15:15.819Z,14.83
2019-05-16T15:17:34.674Z,14.88
2019-05-16T15:20:08.424Z,14.89
2019-05-16T15:22:41.357Z,14.88
2019-05-16T15:25:14.326Z,14.86
2019-05-16T15:27:47.959Z,14.84
2019-05-16T15:30:21.803Z,14.82
2019-05-16T15:32:56.899Z,14.78
2019-05-16T15:35:30.500Z,14.74
2019-05-16T15:38:03.500Z,14.76
2019-05-16T15:40:37.647Z,14.78
2019-05-16T15:43:10.901Z,14.76
2019-05-16T15:45:48.910Z,14.75
2019-05-16T15:48:18.936Z,14.74
2019-05-16T15:50:51.764Z,14.73
2019-05-16T15:53:26.686Z,14.73
2019-05-16T15:56:00.121Z,14.69
2019-05-16T15:58:32.966Z,14.61
2019-05-16T16:01:06.929Z,14.58
2019-05-16T16:03:40.220Z,14.55
2019-05-16T16:06:13.042Z,14.53
2019-05-16T16:08:47.017Z,14.52
2019-05-16T16:11:20.497Z,14.46
2019-05-16T16:13:57.236Z,14.44
2019-05-16T16:16:28.890Z,14.41
2019-05-16T16:19:01.901Z,14.36
2019-05-16T16:21:34.811Z,14.36
2019-05-16T16:24:09.068Z,14.33
2019-05-16T16:26:42.235Z,14.32
2019-05-16T16:29:16.874Z,14.31
2019-05-16T16:31:50.052Z,14.27
2019-05-16T16:34:22.922Z,14.28
2019-05-16T16:36:56.972Z,14.27
2019-05-16T16:39:30.133Z,14.27
2019-05-16T16:42:02.966Z,14.28
2019-05-16T16:44:36.535Z,14.27
2019-05-16T16:47:09.597Z,14.26
2019-05-16T16:49:42.559Z,14.18
2019-05-16T16:52:16.831Z,14.16
2019-05-16T16:54:50.044Z,14.13
2019-05-16T16:57:22.865Z,14.07
2019-05-16T16:59:55.883Z,14.00
2019-05-16T17:02:28.703Z,13.99
2019-05-16T17:05:02.815Z,13.97
2019-05-16T17:07:37.546Z,13.96
2019-05-16T17:10:11.310Z,13.94
2019-05-16T17:12:46.700Z,13.94
2019-05-16T17:15:19.592Z,13.94
2019-05-16T17:17:52.528Z,13.90
2019-05-16T17:20:25.578Z,13.88
2019-05-16T17:22:58.571Z,13.82
2019-05-16T17:25:32.727Z,13.79
2019-05-16T17:28:06.983Z,13.78
2019-05-16T17:30:40.400Z,13.81
2019-05-16T17:33:13.307Z,13.81
2019-05-16T17:35:48.788Z,13.76
2019-05-16T17:38:22.261Z,13.74
2019-05-16T17:40:56.961Z,13.72
2019-05-16T17:43:30.100Z,13.73
2019-05-16T17:46:03.175Z,13.72
2019-05-16T17:48:37.973Z,13.69
2019-05-16T17:51:11.710Z,13.68
2019-05-16T17:53:44.742Z,13.65
2019-05-16T17:56:17.751Z,13.64
2019-05-16T17:58:50.651Z,13.63
2019-05-16T18:01:23.823Z,13.61
2019-05-16T18:03:57.418Z,13.60
2019-05-16T18:06:30.393Z,13.62
2019-05-16T18:09:06.623Z,13.61
2019-05-16T18:11:39.419Z,13.59
2019-05-16T18:14:12.329Z,13.58
2019-05-16T18:16:53.610Z,13.53
2019-05-16T18:19:19.993Z,13.52
2019-05-16T18:21:53.060Z,13.53
2019-05-16T18:24:27.444Z,13.53
2019-05-16T18:27:00.542Z,13.49
2019-05-16T18:29:36.422Z,13.46
2019-05-16T18:32:09.330Z,13.43
2019-05-16T18:34:42.257Z,13.42
2019-05-16T18:37:17.166Z,13.43
2019-05-16T18:39:50.019Z,13.42
2019-05-16T18:42:23.046Z,13.39
2019-05-16T18:44:56.552Z,13.36
2019-05-16T18:47:29.637Z,13.36
2019-05-16T18:50:02.899Z,13.36
2019-05-16T18:52:37.590Z,13.38
2019-05-16T18:55:11.028Z,13.35
2019-05-16T18:57:44.117Z,13.33
2019-05-16T19:00:18.102Z,13.32
2019-05-16T19:02:51.401Z,13.31
2019-05-16T19:05:27.700Z,13.31
2019-05-16T19:08:27.123Z,13.28
2019-05-16T19:11:12.189Z,13.21
2019-05-16T19:13:47.458Z,13.21
2019-05-16T19:16:21.932Z,13.19
2019-05-16T19:18:56.610Z,13.18
2019-05-16T19:21:30.790Z,13.21
2019-05-16T19:24:03.768Z,13.23
2019-05-16T19:26:40.302Z,13.22
2019-05-16T19:29:12.528Z,13.22
2019-05-16T19:31:46.638Z,13.21
2019-05-16T19:34:20.414Z,13.21
2019-05-16T19:36:53.576Z,13.21
2019-05-16T19:39:28.750Z,13.22
2019-05-16T19:42:03.614Z,13.22
2019-05-16T19:44:37.205Z,13.23
2019-05-16T19:47:10.428Z,13.25
2019-05-16T19:49:43.340Z,13.26
2019-05-16T19:52:16.562Z,13.27
2019-05-16T19:54:49.632Z,13.24
2019-05-16T19:57:22.558Z,13.15
2019-05-16T19:59:56.714Z,13.07
2019-05-16T20:02:29.745Z,13.08
2019-05-16T20:05:02.609Z,13.08
2019-05-16T20:07:37.197Z,13.06
2019-05-16T20:10:10.895Z,13.09
2019-05-16T20:12:46.168Z,13.09
2019-05-16T20:15:18.950Z,13.07
2019-05-16T20:17:55.131Z,13.06
2019-05-16T20:20:27.543Z,13.03
2019-05-16T20:23:00.670Z,13.00
2019-05-16T20:25:36.658Z,12.96
2019-05-16T20:28:09.235Z,12.97
2019-05-16T20:30:42.202Z,13.00
2019-05-16T20:33:17.652Z,13.01
2019-05-16T20:35:50.876Z,13.03
2019-05-16T20:38:23.839Z,13.00
2019-05-16T20:40:59.763Z,12.95
2019-05-16T20:43:31.350Z,12.93
2019-05-16T20:46:04.235Z,12.94
2019-05-16T20:48:37.139Z,12.93
2019-05-16T20:51:11.062Z,12.92
2019-05-16T20:53:43.920Z,12.90
2019-05-16T20:56:17.232Z,12.89
2019-05-16T20:58:50.401Z,12.95
2019-05-16T21:01:23.372Z,13.00
2019-05-16T21:03:57.344Z,13.03
2019-05-16T21:06:30.361Z,13.01
2019-05-16T21:09:06.604Z,13.00
2019-05-16T21:11:38.860Z,12.99
2019-05-16T21:14:11.754Z,12.93
2019-05-16T21:16:46.549Z,12.89
2019-05-16T21:19:19.246Z,12.84
2019-05-16T21:21:52.273Z,12.82
2019-05-16T21:24:26.727Z,12.82
2019-05-16T21:26:59.897Z,12.81
2019-05-16T21:29:32.790Z,12.80
2019-05-16T21:32:07.476Z,12.84
2019-05-16T21:34:43.406Z,12.84
2019-05-16T21:37:19.636Z,12.84
2019-05-16T21:39:51.035Z,12.83
2019-05-16T21:42:24.184Z,12.80
2019-05-16T21:44:57.229Z,12.78
2019-05-16T21:47:30.080Z,12.76
2019-05-16T21:50:02.993Z,12.71
2019-05-16T21:52:36.413Z,12.73
2019-05-16T21:55:10.881Z,12.72
2019-05-16T21:57:46.695Z,12.75
2019-05-16T22:00:27.757Z,12.74
2019-05-16T22:03:02.206Z,12.68
2019-05-16T22:05:36.998Z,12.68
2019-05-16T22:08:11.866Z,12.67
2019-05-16T22:10:46.696Z,12.67
2019-05-16T22:13:19.751Z,12.66
2019-05-16T22:15:52.690Z,12.65
2019-05-16T22:18:25.573Z,12.68
2019-05-16T22:20:59.635Z,12.69
2019-05-16T22:23:32.543Z,12.67
2019-05-16T22:26:07.583Z,12.63
2019-05-16T22:28:40.072Z,12.61
2019-05-16T22:31:12.975Z,12.60
2019-05-16T22:33:46.922Z,12.57
2019-05-16T22:36:21.108Z,12.60
2019-05-16T22:38:54.011Z,12.61
2019-05-16T22:41:27.014Z,12.60
2019-05-16T22:43:59.902Z,12.57
2019-05-16T22:46:32.981Z,12.55
2019-05-16T22:49:07.618Z,12.55
2019-05-16T22:51:40.572Z,12.57
2019-05-16T22:54:13.437Z,12.57
2019-05-16T22:56:46.761Z,12.57
2019-05-16T22:59:19.650Z,12.53
2019-05-16T23:01:52.876Z,12.48
2019-05-16T23:04:27.309Z,12.46
2019-05-16T23:07:00.444Z,12.46
2019-05-16T23:09:33.568Z,12.46
2019-05-16T23:12:07.075Z,12.47
2019-05-16T23:14:40.226Z,12.50
2019-05-16T23:17:13.286Z,12.54
2019-05-16T23:19:47.465Z,12.53
2019-05-16T23:22:20.607Z,12.56
2019-05-16T23:24:53.437Z,12.55
2019-05-16T23:27:27.304Z,12.55
2019-05-16T23:30:00.697Z,12.55
2019-05-16T23:32:33.800Z,12.56
2019-05-16T23:35:07.256Z,12.54
2019-05-16T23:37:40.317Z,12.58
2019-05-16T23:40:15.123Z,12.56
2019-05-16T23:42:48.230Z,12.57
2019-05-16T23:45:21.042Z,12.59
2019-05-16T23:47:56.280Z,12.60
2019-05-16T23:50:28.371Z,12.57
2019-05-16T23:53:01.268Z,12.47
2019-05-16T23:55:36.876Z,12.40
2019-05-16T23:58:08.618Z,12.34
